Terminal Aerodrome Forecast
Issued by NWS Shreveport, LA

Home | Current Version | Previous Version | Text Only | Print | Product List | Glossary On
Versions: 1 2 3 4 5 6 7 8 9 10 11 12 13 14 15 16 17 18 19 20 21 22 23 24 25
412
FTUS44 KSHV 191908 AAA
TAFTXK
TAF AMD
KTXK 191908Z 1919/2018 15008KT P6SM SCT015
      TEMPO 1919/1921 BKN008
     FM192200 15008KT P6SM SCT030 BKN250
     FM201000 14006KT P6SM BKN015 OVC025
     FM201400 17010KT 4SM SHRA BR OVC010=

USA.gov is the U.S. government's official web portal to all federal, state and local government web resources and services.